首页
METAR-TAF:

METAR-TAF

机场 :

Sarasota-Bradenton International Airport

Sarasota / 布雷登顿, 佛罗里达州, 美国

纬度: 27-24-05N, 经度: 082-33-31W, 海拔: 9米

当前天气观测

该预报发布于24分钟前的14:53 UTC
风速5节,风向西南
温度 29°C
湿度 70%
气压 1016 hPa
能見度: 16.1公里
散云层高于3600英尺
散云层高于6500英尺

METAR: KSRQ 241453Z 23005KT 10SM SCT036 SCT065 29/23 A2999 RMK AO2 SLP154 T02940233 51008

时间: 11:17 (15:17 UTC)

预报

该预报发布于3小时和39分钟前的11:38 UTC
预报有效从24日的 12点(UTC)到 25日的 12点(UTC)
风速6节,风向西
能見度: 10公里
多云层高于25000英尺
从 24日的 1600点(UTC)
风速5节,风向西转西南
能見度: 10公里
散云层高于4000英尺
多云层高于25000英尺
附近有阵雨
从 24日的 1900点(UTC)
风速9节,风向西
能見度: 10公里
散云层高于4000英尺, 积雨云.
散云层高于25000英尺
附近有雷暴
从 25日的 0100点(UTC)
风速4节,风向西
能見度: 10公里
散云层高于4000英尺
散云层高于25000英尺
附近有阵雨
从 25日的 0400点(UTC)
风速3节,风向东南
能見度: 10公里
散云层高于25000英尺

TAF: KSRQ 241138Z 2412/2512 26006KT P6SM BKN250 FM241600 24005KT P6SM VCSH SCT040 BKN250 FM241900 27009KT P6SM VCTS SCT040CB SCT250 FM250100 28004KT P6SM VCSH SCT040 SCT250 FM250400 13003KT P6SM SCT250

超过4000个机场的气象观测和天气预报(METAR&TAF报告)。

可查询的气象台以黄色和红色小点在地图上表示。

将鼠标移到小点上方,可查看气象台名称。

然后点击查看天气观测和预报。

如需切换地图:点击带黑十字的绿色按钮放大地图;点击带横线的绿色按钮缩小地图;或者点击绿色箭头查看邻近地区的地图。


METAR-TAF: